Terminal Aerodrome Forecast
Issued by NWS

Home | Current Version | Previous Version | Text Only | Print | Product List | Glossary On
Versions: 1 2 3 4 5 6 7 8 9 10 11 12 13 14 15 16 17 18 19 20 21 22 23
219
FTUS44 KTSA 191830 AAA
TAFBVO
TAF AMD
KBVO 191830Z 1919/2018 18008KT P6SM OVC010
     FM192100 16011G17KT P6SM OVC015
     FM200000 15007KT 4SM BR VCSH OVC015
     FM200400 14007KT 4SM BR VCTS OVC015CB
      TEMPO 2005/2009 2SM -TSRA OVC007CB
     FM201000 18006KT 4SM -RA BR OVC007
     FM201500 19007KT 4SM BR OVC015=

USA.gov is the U.S. government's official web portal to all federal, state and local government web resources and services.